createdAt,value
2022-11-27T00:00:23.548Z,5.92
2022-11-27T00:01:28.550Z,5.94
2022-11-27T00:02:33.306Z,5.88
2022-11-27T00:03:40.392Z,5.90
2022-11-27T00:04:43.452Z,5.95
2022-11-27T00:05:58.988Z,5.92
2022-11-27T00:07:01.702Z,5.87
2022-11-27T00:08:04.523Z,5.90
2022-11-27T00:09:12.554Z,5.85
2022-11-27T00:10:15.302Z,5.92
2022-11-27T00:11:21.532Z,5.92
2022-11-27T00:12:24.267Z,5.90
2022-11-27T00:13:26.945Z,5.86
2022-11-27T00:14:29.551Z,5.81
2022-11-27T00:15:32.379Z,5.79
2022-11-27T00:16:35.102Z,5.80
2022-11-27T00:17:38.366Z,5.80
2022-11-27T00:18:42.303Z,5.93
2022-11-27T00:19:45.001Z,5.94
2022-11-27T00:20:47.661Z,5.88
2022-11-27T00:21:50.413Z,5.84
2022-11-27T00:22:53.055Z,6.04
2022-11-27T00:23:58.381Z,6.01
2022-11-27T00:25:01.091Z,6.05
2022-11-27T00:26:04.540Z,5.97
2022-11-27T00:27:07.459Z,5.88
2022-11-27T00:28:10.210Z,5.83
2022-11-27T00:29:13.020Z,5.79
2022-11-27T00:30:15.894Z,5.74
2022-11-27T00:31:27.634Z,5.73
2022-11-27T00:32:30.413Z,5.76
2022-11-27T00:33:33.717Z,5.73
2022-11-27T00:34:36.363Z,5.71
2022-11-27T00:35:39.789Z,5.73
2022-11-27T00:36:46.567Z,5.70
2022-11-27T00:37:51.437Z,5.71
2022-11-27T00:38:55.149Z,5.73
2022-11-27T00:39:58.079Z,5.73
2022-11-27T00:41:36.961Z,5.77
2022-11-27T00:42:39.676Z,5.70
2022-11-27T00:43:44.820Z,5.67
2022-11-27T00:44:48.374Z,5.67
2022-11-27T00:45:51.044Z,5.75
2022-11-27T00:46:53.901Z,5.73
2022-11-27T00:47:56.567Z,5.70
2022-11-27T00:49:00.991Z,5.69
2022-11-27T00:50:04.480Z,5.66
2022-11-27T00:51:09.674Z,5.64
2022-11-27T00:52:12.700Z,5.61
2022-11-27T00:53:15.828Z,5.60
2022-11-27T00:54:20.769Z,5.60
2022-11-27T00:55:25.852Z,5.55
2022-11-27T00:56:38.173Z,5.57
2022-11-27T00:57:40.968Z,5.56
2022-11-27T00:58:44.104Z,5.52
2022-11-27T00:59:46.781Z,5.51
2022-11-27T01:01:00.742Z,5.47
2022-11-27T01:02:03.499Z,5.41
2022-11-27T01:03:06.415Z,5.39
2022-11-27T01:04:13.445Z,5.37
2022-11-27T01:05:16.381Z,5.34
2022-11-27T01:06:20.261Z,5.34
2022-11-27T01:07:23.123Z,5.34
2022-11-27T01:08:26.580Z,5.33
2022-11-27T01:09:29.481Z,5.30
2022-11-27T01:10:32.135Z,5.31
2022-11-27T01:11:35.930Z,5.28
2022-11-27T01:12:38.649Z,5.26
2022-11-27T01:13:42.012Z,5.27
2022-11-27T01:14:44.654Z,5.24
2022-11-27T01:15:47.967Z,5.28
2022-11-27T01:16:50.786Z,5.28
2022-11-27T01:17:53.465Z,5.25
2022-11-27T01:18:58.111Z,5.23
2022-11-27T01:20:00.732Z,5.21
2022-11-27T01:21:04.302Z,5.16
2022-11-27T01:22:06.894Z,5.17
2022-11-27T01:23:09.620Z,5.19
2022-11-27T01:24:14.454Z,5.14
2022-11-27T01:25:17.012Z,5.10
2022-11-27T01:26:19.895Z,5.07
2022-11-27T01:27:22.548Z,5.09
2022-11-27T01:28:25.289Z,5.08
2022-11-27T01:29:27.893Z,5.03
2022-11-27T01:30:30.734Z,5.02
2022-11-27T01:31:34.760Z,5.03
2022-11-27T01:32:37.461Z,5.00
2022-11-27T01:33:40.504Z,4.97
2022-11-27T01:34:43.137Z,4.95
2022-11-27T01:35:56.691Z,4.91
2022-11-27T01:36:59.416Z,4.88
2022-11-27T01:38:02.251Z,4.86
2022-11-27T01:39:05.650Z,4.83
2022-11-27T01:40:09.215Z,4.76
2022-11-27T01:41:16.495Z,4.75
2022-11-27T01:42:19.249Z,4.73
2022-11-27T01:43:56.829Z,4.73
2022-11-27T01:44:59.576Z,4.75
2022-11-27T01:46:02.480Z,4.77
2022-11-27T01:47:25.173Z,4.74
2022-11-27T01:48:27.971Z,4.74
2022-11-27T01:49:35.891Z,4.73
2022-11-27T01:50:40.494Z,4.70
2022-11-27T01:52:14.290Z,4.66
2022-11-27T01:53:19.813Z,4.62
2022-11-27T01:54:26.420Z,4.60
2022-11-27T01:55:41.214Z,4.60
2022-11-27T01:56:49.175Z,4.59
2022-11-27T01:58:15.304Z,4.59
2022-11-27T01:59:19.078Z,4.60
2022-11-27T02:00:22.462Z,4.62
2022-11-27T02:01:26.439Z,4.62
2022-11-27T02:02:29.276Z,4.64
2022-11-27T02:03:32.974Z,4.66
2022-11-27T02:04:35.932Z,4.68
2022-11-27T02:05:38.767Z,4.64
2022-11-27T02:06:41.720Z,4.63
2022-11-27T02:07:46.217Z,4.62
2022-11-27T02:08:48.979Z,4.56
2022-11-27T02:09:52.346Z,4.63
2022-11-27T02:10:57.493Z,4.63
2022-11-27T02:12:26.953Z,4.61
2022-11-27T02:13:38.458Z,4.56
2022-11-27T02:14:47.310Z,4.54
2022-11-27T02:16:02.073Z,4.49
2022-11-27T02:17:32.452Z,4.45
2022-11-27T02:18:54.492Z,4.39
2022-11-27T02:20:21.691Z,4.35
2022-11-27T02:21:51.841Z,4.34
2022-11-27T02:23:22.573Z,4.39
2022-11-27T02:24:50.143Z,4.32
2022-11-27T02:26:19.492Z,4.28
2022-11-27T02:27:37.091Z,4.27
2022-11-27T02:29:17.900Z,4.29
2022-11-27T02:30:20.901Z,4.28
2022-11-27T02:31:40.569Z,4.21
2022-11-27T02:32:59.494Z,4.18
2022-11-27T02:34:13.935Z,4.16
2022-11-27T02:35:29.017Z,4.11
2022-11-27T02:36:34.295Z,4.11
2022-11-27T02:37:53.656Z,4.09
2022-11-27T02:39:22.129Z,4.06
2022-11-27T02:40:32.253Z,4.08
2022-11-27T02:41:42.413Z,4.07
2022-11-27T02:43:02.896Z,4.05
2022-11-27T02:44:09.531Z,4.03
2022-11-27T02:45:16.532Z,4.05
2022-11-27T02:46:21.009Z,4.09
2022-11-27T02:47:24.288Z,4.05
2022-11-27T02:48:35.011Z,4.04
2022-11-27T02:49:39.694Z,4.02
2022-11-27T02:50:45.371Z,3.97
2022-11-27T02:51:59.348Z,4.00
2022-11-27T02:53:08.014Z,3.98
2022-11-27T02:54:18.857Z,3.98
2022-11-27T02:55:27.913Z,3.94
2022-11-27T02:56:32.815Z,3.94
2022-11-27T02:57:39.414Z,3.97
2022-11-27T02:58:43.060Z,3.95
2022-11-27T02:59:46.780Z,3.97
2022-11-27T03:00:50.934Z,3.98
2022-11-27T03:01:59.530Z,4.03
2022-11-27T03:03:07.499Z,4.05
2022-11-27T03:04:16.385Z,4.09
2022-11-27T03:05:23.095Z,4.11
2022-11-27T03:06:33.947Z,4.16
2022-11-27T03:07:41.676Z,4.11
2022-11-27T03:08:55.131Z,4.12
2022-11-27T03:10:04.099Z,4.24
2022-11-27T03:11:11.971Z,4.23
2022-11-27T03:12:16.696Z,4.21
2022-11-27T03:13:19.515Z,4.18
2022-11-27T03:14:25.113Z,4.18
2022-11-27T03:15:37.830Z,4.17
2022-11-27T03:16:58.388Z,4.26
2022-11-27T03:18:21.109Z,4.28
2022-11-27T03:19:41.581Z,4.23
2022-11-27T03:20:49.548Z,4.16
2022-11-27T03:21:58.709Z,4.14
2022-11-27T03:23:01.345Z,4.15
2022-11-27T03:24:04.457Z,4.16
2022-11-27T03:25:07.529Z,4.15
2022-11-27T03:26:10.405Z,4.09
2022-11-27T03:27:19.089Z,4.08
2022-11-27T03:28:22.823Z,4.06
2022-11-27T03:29:39.397Z,4.04
2022-11-27T03:30:42.199Z,3.97
2022-11-27T03:31:45.314Z,3.96
2022-11-27T03:32:48.206Z,3.92
2022-11-27T03:33:51.140Z,3.92
2022-11-27T03:34:54.852Z,3.91
2022-11-27T03:35:57.607Z,3.95
2022-11-27T03:37:01.276Z,3.90
2022-11-27T03:38:04.379Z,3.91
2022-11-27T03:39:07.211Z,3.89
2022-11-27T03:40:12.014Z,3.91
2022-11-27T03:41:42.689Z,3.91
2022-11-27T03:43:00.301Z,3.96
2022-11-27T03:44:26.974Z,3.97
2022-11-27T03:45:38.532Z,3.93
2022-11-27T03:46:54.074Z,4.03
2022-11-27T03:48:34.246Z,3.95
2022-11-27T03:50:09.029Z,4.03
2022-11-27T03:51:17.421Z,4.00
2022-11-27T03:52:28.655Z,3.95
2022-11-27T03:53:37.184Z,4.01
2022-11-27T03:55:13.775Z,4.04
2022-11-27T03:56:51.541Z,4.01
2022-11-27T03:58:03.261Z,4.02
2022-11-27T03:59:18.337Z,3.94
2022-11-27T04:00:21.012Z,3.91
2022-11-27T04:01:26.598Z,3.90
2022-11-27T04:02:47.599Z,3.95
2022-11-27T04:03:50.450Z,3.93
2022-11-27T04:04:53.141Z,3.91
2022-11-27T04:05:56.011Z,3.93
2022-11-27T04:06:58.972Z,3.89
2022-11-27T04:08:01.695Z,3.84
2022-11-27T04:09:05.297Z,3.84
2022-11-27T04:10:09.214Z,3.83
2022-11-27T04:11:12.449Z,3.86
2022-11-27T04:12:15.139Z,3.83
2022-11-27T04:13:18.101Z,3.83
2022-11-27T04:14:20.861Z,3.80
2022-11-27T04:15:23.577Z,3.79
2022-11-27T04:16:26.441Z,3.78
2022-11-27T04:17:29.625Z,3.78
2022-11-27T04:18:34.185Z,3.82
2022-11-27T04:19:36.933Z,3.84
2022-11-27T04:20:39.613Z,3.86
2022-11-27T04:21:42.292Z,3.88
2022-11-27T04:22:44.993Z,3.89
2022-11-27T04:23:47.783Z,3.90
2022-11-27T04:24:51.173Z,3.94
2022-11-27T04:25:53.932Z,3.95
2022-11-27T04:26:56.572Z,3.91
2022-11-27T04:27:59.219Z,3.92
2022-11-27T04:29:02.172Z,3.91
2022-11-27T04:30:05.531Z,3.90
2022-11-27T04:31:08.517Z,3.83
2022-11-27T04:32:11.245Z,3.84
2022-11-27T04:33:14.088Z,3.84
2022-11-27T04:34:16.850Z,3.80
2022-11-27T04:35:19.487Z,3.76
2022-11-27T04:36:26.654Z,3.73
2022-11-27T04:37:29.312Z,3.70
2022-11-27T04:38:31.978Z,3.67
2022-11-27T04:39:34.672Z,3.66
2022-11-27T04:40:37.364Z,3.61
2022-11-27T04:41:40.215Z,3.63
2022-11-27T04:42:43.638Z,3.61
2022-11-27T04:43:46.302Z,3.59
2022-11-27T04:44:48.890Z,3.54
2022-11-27T04:45:51.873Z,3.51
2022-11-27T04:46:55.341Z,3.49
2022-11-27T04:47:58.164Z,3.47
2022-11-27T04:49:00.785Z,3.48
2022-11-27T04:50:03.933Z,3.44
2022-11-27T04:51:06.700Z,3.41
2022-11-27T04:52:11.032Z,3.39
2022-11-27T04:53:13.775Z,3.38
2022-11-27T04:54:16.478Z,3.35
2022-11-27T04:55:19.256Z,3.37
2022-11-27T04:56:22.079Z,3.33
2022-11-27T04:57:24.888Z,3.35
2022-11-27T04:58:27.637Z,3.31
2022-11-27T04:59:30.489Z,3.26
2022-11-27T05:00:33.323Z,3.22
2022-11-27T05:01:36.319Z,3.23
2022-11-27T05:02:39.817Z,3.19
2022-11-27T05:03:42.535Z,3.14
2022-11-27T05:04:45.369Z,3.11
2022-11-27T05:05:56.196Z,3.11
2022-11-27T05:06:58.913Z,3.07
2022-11-27T05:08:01.856Z,3.03
2022-11-27T05:09:05.150Z,3.02
2022-11-27T05:10:08.907Z,2.98
2022-11-27T05:11:14.352Z,2.96
2022-11-27T05:12:17.824Z,3.02
2022-11-27T05:13:20.740Z,3.02
2022-11-27T05:14:29.620Z,3.00
2022-11-27T05:15:32.616Z,3.04
2022-11-27T05:16:35.549Z,3.03
2022-11-27T05:17:38.400Z,3.05
2022-11-27T05:18:44.572Z,3.04
2022-11-27T05:19:47.477Z,3.02
2022-11-27T05:21:05.136Z,3.09
2022-11-27T05:22:08.056Z,3.11
2022-11-27T05:23:11.022Z,3.09
2022-11-27T05:24:15.148Z,3.06
2022-11-27T05:25:18.055Z,3.08
2022-11-27T05:26:20.859Z,3.06
2022-11-27T05:27:23.805Z,3.03
2022-11-27T05:28:27.395Z,3.04
2022-11-27T05:29:30.342Z,3.00
2022-11-27T05:30:33.108Z,2.96
2022-11-27T05:31:36.876Z,2.92
2022-11-27T05:32:39.703Z,2.94
2022-11-27T05:33:42.586Z,2.94
2022-11-27T05:34:45.430Z,2.95
2022-11-27T05:35:48.363Z,2.90
2022-11-27T05:36:51.272Z,2.85
2022-11-27T05:37:54.172Z,2.86
2022-11-27T05:38:57.115Z,2.92
2022-11-27T05:40:00.059Z,2.95
2022-11-27T05:41:02.942Z,2.92
2022-11-27T05:42:05.790Z,2.98
2022-11-27T05:43:08.877Z,2.98
2022-11-27T05:44:16.869Z,3.05
2022-11-27T05:45:19.779Z,3.07
2022-11-27T05:46:23.897Z,3.07
2022-11-27T05:47:27.143Z,3.06
2022-11-27T05:48:29.986Z,3.05
2022-11-27T05:49:33.019Z,3.05
2022-11-27T05:50:35.820Z,3.06
2022-11-27T05:51:38.698Z,3.09
2022-11-27T05:52:41.423Z,3.09
2022-11-27T05:53:44.353Z,3.12
2022-11-27T05:54:47.267Z,3.12
2022-11-27T05:55:50.060Z,3.21
2022-11-27T05:56:53.039Z,3.22
2022-11-27T05:57:56.068Z,3.24
2022-11-27T05:58:59.064Z,3.28
2022-11-27T06:00:02.262Z,3.37
2022-11-27T06:01:07.840Z,3.33
2022-11-27T06:02:15.072Z,3.30
2022-11-27T06:03:21.412Z,3.28
2022-11-27T06:04:24.311Z,3.24
2022-11-27T06:05:27.178Z,3.26
2022-11-27T06:06:30.144Z,3.28
2022-11-27T06:07:33.378Z,3.21
2022-11-27T06:08:38.019Z,3.16
2022-11-27T06:09:40.866Z,3.12
2022-11-27T06:10:43.867Z,3.11
2022-11-27T06:11:46.820Z,3.10
2022-11-27T06:12:49.817Z,3.17
2022-11-27T06:13:52.656Z,3.18
2022-11-27T06:14:55.575Z,3.17
2022-11-27T06:15:58.704Z,3.17
2022-11-27T06:17:03.338Z,3.21
2022-11-27T06:18:07.152Z,3.21
2022-11-27T06:19:10.228Z,3.22
2022-11-27T06:20:13.351Z,3.23
2022-11-27T06:21:20.421Z,3.24
2022-11-27T06:22:23.270Z,3.24
2022-11-27T06:23:26.178Z,3.23
2022-11-27T06:24:29.068Z,3.24
2022-11-27T06:25:32.108Z,3.37
2022-11-27T06:26:35.306Z,3.44
2022-11-27T06:27:38.473Z,3.44
2022-11-27T06:28:42.424Z,3.43
2022-11-27T06:29:45.176Z,3.42
2022-11-27T06:30:48.179Z,3.44
2022-11-27T06:31:51.134Z,3.44
2022-11-27T06:32:54.421Z,3.42
2022-11-27T06:33:58.338Z,3.44
2022-11-27T06:35:01.660Z,3.46
2022-11-27T06:36:05.785Z,3.47
2022-11-27T06:37:12.986Z,3.50
2022-11-27T06:38:16.304Z,3.53
2022-11-27T06:39:19.300Z,3.50
2022-11-27T06:40:22.626Z,3.49
2022-11-27T06:41:27.419Z,3.51
2022-11-27T06:42:31.141Z,3.52
2022-11-27T06:43:35.056Z,3.55
2022-11-27T06:44:38.139Z,3.55
2022-11-27T06:45:41.367Z,3.58
2022-11-27T06:46:44.428Z,3.60
2022-11-27T06:47:47.539Z,3.60
2022-11-27T06:48:52.986Z,3.62
2022-11-27T06:49:55.868Z,3.66
2022-11-27T06:51:02.937Z,3.71
2022-11-27T06:52:05.936Z,3.76
2022-11-27T06:53:08.817Z,3.88
2022-11-27T06:54:11.780Z,3.84
2022-11-27T06:55:14.631Z,3.81
2022-11-27T06:56:20.262Z,3.80
2022-11-27T06:57:23.580Z,3.86
2022-11-27T06:58:30.840Z,3.90
2022-11-27T06:59:34.261Z,3.90
2022-11-27T07:00:37.641Z,3.91
2022-11-27T07:01:40.943Z,3.95
2022-11-27T07:02:43.815Z,3.93
2022-11-27T07:03:46.858Z,3.93
2022-11-27T07:04:49.624Z,3.93
2022-11-27T07:05:52.466Z,3.92
2022-11-27T07:06:55.827Z,3.93
2022-11-27T07:07:59.199Z,3.94
2022-11-27T07:09:02.077Z,3.94
2022-11-27T07:10:05.491Z,3.95
2022-11-27T07:11:16.139Z,3.96
2022-11-27T07:12:19.026Z,4.02
2022-11-27T07:13:21.970Z,4.02
2022-11-27T07:14:24.766Z,4.02
2022-11-27T07:15:27.709Z,4.06
2022-11-27T07:16:33.590Z,4.08
2022-11-27T07:17:38.285Z,4.10
2022-11-27T07:18:44.610Z,4.11
2022-11-27T07:19:47.882Z,4.14
2022-11-27T07:20:56.450Z,4.15
2022-11-27T07:21:59.706Z,4.14
2022-11-27T07:23:02.859Z,4.13
2022-11-27T07:24:06.107Z,4.34
2022-11-27T07:25:09.203Z,4.33
2022-11-27T07:26:13.758Z,4.31
2022-11-27T07:27:16.688Z,4.26
2022-11-27T07:28:20.988Z,4.33
2022-11-27T07:29:23.889Z,4.36
2022-11-27T07:30:26.771Z,4.38
2022-11-27T07:31:30.543Z,4.38
2022-11-27T07:32:33.584Z,4.26
2022-11-27T07:33:36.757Z,4.23
2022-11-27T07:34:39.904Z,4.35
2022-11-27T07:35:42.886Z,4.34
2022-11-27T07:36:45.863Z,4.27
2022-11-27T07:37:48.626Z,4.23
2022-11-27T07:38:51.962Z,4.21
2022-11-27T07:40:02.343Z,4.22
2022-11-27T07:41:06.948Z,4.27
2022-11-27T07:42:37.125Z,4.25
2022-11-27T07:43:34.192Z,4.27
2022-11-27T07:44:37.595Z,4.26
2022-11-27T07:45:40.398Z,4.22
2022-11-27T07:46:44.550Z,4.28
2022-11-27T07:47:47.497Z,4.26
2022-11-27T07:48:55.586Z,4.32
2022-11-27T07:50:00.692Z,4.45
2022-11-27T07:51:07.639Z,4.35
2022-11-27T07:52:10.436Z,4.38
2022-11-27T07:53:13.390Z,4.39
2022-11-27T07:54:16.177Z,4.32
2022-11-27T07:55:18.975Z,4.30
2022-11-27T07:56:22.024Z,4.31
2022-11-27T07:57:24.916Z,4.36
2022-11-27T07:58:27.841Z,4.31
2022-11-27T07:59:30.899Z,4.40
2022-11-27T08:00:34.489Z,4.43
2022-11-27T08:01:37.446Z,4.37
2022-11-27T08:02:40.471Z,4.33
2022-11-27T08:03:46.162Z,4.31
2022-11-27T08:04:49.336Z,4.30
2022-11-27T08:05:52.612Z,4.32
2022-11-27T08:06:57.728Z,4.31
2022-11-27T08:08:01.729Z,4.30
2022-11-27T08:09:04.841Z,4.33
2022-11-27T08:10:08.561Z,4.32
2022-11-27T08:11:23.923Z,4.33
2022-11-27T08:12:27.156Z,4.30
2022-11-27T08:13:30.086Z,4.31
2022-11-27T08:14:33.276Z,4.29
2022-11-27T08:15:37.640Z,4.28
2022-11-27T08:16:40.725Z,4.33
2022-11-27T08:17:44.155Z,4.46
2022-11-27T08:18:47.223Z,4.52
2022-11-27T08:19:50.083Z,4.46
2022-11-27T08:20:53.011Z,4.41
2022-11-27T08:21:57.741Z,4.42
2022-11-27T08:23:02.934Z,4.49
2022-11-27T08:24:06.384Z,4.53
2022-11-27T08:25:09.712Z,4.44
2022-11-27T08:26:13.613Z,4.41
2022-11-27T08:27:16.740Z,4.41
2022-11-27T08:28:19.492Z,4.40
2022-11-27T08:29:22.353Z,4.42
2022-11-27T08:30:25.701Z,4.43
2022-11-27T08:31:28.993Z,4.47
2022-11-27T08:32:31.986Z,4.47
2022-11-27T08:33:35.711Z,4.52
2022-11-27T08:34:38.906Z,4.64
2022-11-27T08:35:49.147Z,4.58
2022-11-27T08:36:52.132Z,4.49
2022-11-27T08:37:54.919Z,4.46
2022-11-27T08:38:58.482Z,4.47
2022-11-27T08:40:01.447Z,4.48
2022-11-27T08:41:06.542Z,4.47
2022-11-27T08:42:09.552Z,4.47
2022-11-27T08:43:12.463Z,4.57
2022-11-27T08:44:15.282Z,4.54
2022-11-27T08:45:20.505Z,4.52
2022-11-27T08:46:23.405Z,4.47
2022-11-27T08:47:26.476Z,4.49
2022-11-27T08:48:31.400Z,4.53
2022-11-27T08:49:34.504Z,4.58
2022-11-27T08:50:38.381Z,4.64
2022-11-27T08:51:41.663Z,4.70
2022-11-27T08:52:44.681Z,4.58
2022-11-27T08:53:47.664Z,4.59
2022-11-27T08:54:54.557Z,4.57
2022-11-27T08:56:12.896Z,4.62
2022-11-27T08:57:17.156Z,4.58
2022-11-27T08:58:22.011Z,4.60
2022-11-27T08:59:25.073Z,4.57
2022-11-27T09:00:28.401Z,4.55
2022-11-27T09:01:32.832Z,4.50
2022-11-27T09:02:35.748Z,4.48
2022-11-27T09:03:39.122Z,4.43
2022-11-27T09:04:42.359Z,4.39
2022-11-27T09:05:45.671Z,4.42
2022-11-27T09:06:56.788Z,4.41
2022-11-27T09:08:03.050Z,4.43
2022-11-27T09:09:06.467Z,4.48
2022-11-27T09:10:10.867Z,4.50
2022-11-27T09:11:15.847Z,4.49
2022-11-27T09:12:19.226Z,4.50
2022-11-27T09:13:22.164Z,4.61
2022-11-27T09:14:25.204Z,4.71
2022-11-27T09:15:28.442Z,4.66
2022-11-27T09:16:32.157Z,4.67
2022-11-27T09:17:35.454Z,4.62
2022-11-27T09:18:38.973Z,4.64
2022-11-27T09:19:41.805Z,4.66
2022-11-27T09:20:45.577Z,4.57
2022-11-27T09:21:50.982Z,4.55
2022-11-27T09:22:53.823Z,4.53
2022-11-27T09:23:58.779Z,4.53
2022-11-27T09:25:01.732Z,4.54
2022-11-27T09:26:07.981Z,4.60
2022-11-27T09:27:11.007Z,4.54
2022-11-27T09:28:14.059Z,4.60
2022-11-27T09:29:17.006Z,4.59
2022-11-27T09:30:20.163Z,4.59
2022-11-27T09:31:23.611Z,4.59
2022-11-27T09:32:26.532Z,4.68
2022-11-27T09:33:32.694Z,4.76
2022-11-27T09:34:37.726Z,4.69
2022-11-27T09:35:41.159Z,4.67
2022-11-27T09:36:44.387Z,4.66
2022-11-27T09:37:47.242Z,4.71
2022-11-27T09:38:50.461Z,4.74
2022-11-27T09:39:53.717Z,4.78
2022-11-27T09:41:03.548Z,4.73
2022-11-27T09:42:10.152Z,4.77
2022-11-27T09:43:16.638Z,4.78
2022-11-27T09:44:22.218Z,4.70
2022-11-27T09:45:27.435Z,4.68
2022-11-27T09:46:36.256Z,4.72
2022-11-27T09:47:44.780Z,4.80
2022-11-27T09:48:50.807Z,4.81
2022-11-27T09:49:59.797Z,4.84
2022-11-27T09:51:10.759Z,4.85
2022-11-27T09:52:50.603Z,4.87
2022-11-27T09:54:03.328Z,4.93
2022-11-27T09:55:26.525Z,5.01
2022-11-27T09:56:32.879Z,4.96
2022-11-27T09:57:39.609Z,4.91
2022-11-27T09:58:45.602Z,4.90
2022-11-27T09:59:54.089Z,4.88
2022-11-27T10:00:57.121Z,4.96
2022-11-27T10:02:00.085Z,4.97
2022-11-27T10:03:03.181Z,4.95
2022-11-27T10:04:06.817Z,4.96
2022-11-27T10:05:27.133Z,4.96
2022-11-27T10:07:00.529Z,4.98
2022-11-27T10:08:18.839Z,5.03
2022-11-27T10:09:34.551Z,5.07
2022-11-27T10:10:56.216Z,5.06
2022-11-27T10:12:07.279Z,5.03
2022-11-27T10:14:04.197Z,5.02
2022-11-27T10:15:42.556Z,5.01
2022-11-27T10:16:54.505Z,5.07
2022-11-27T10:18:15.415Z,5.16
2022-11-27T10:19:21.211Z,5.22
2022-11-27T10:20:36.552Z,5.14
2022-11-27T10:22:00.056Z,5.13
2022-11-27T10:23:15.568Z,5.24
2022-11-27T10:24:31.539Z,5.22
2022-11-27T10:25:43.633Z,5.29
2022-11-27T10:26:49.534Z,5.38
2022-11-27T10:28:06.995Z,5.40
2022-11-27T10:29:15.949Z,5.48
2022-11-27T10:30:22.083Z,5.27
2022-11-27T10:31:50.069Z,5.18
2022-11-27T10:32:57.442Z,5.13
2022-11-27T10:34:19.757Z,5.12
2022-11-27T10:35:25.398Z,5.19
2022-11-27T10:36:50.955Z,5.24
2022-11-27T10:38:05.254Z,5.20
2022-11-27T10:39:35.655Z,5.29
2022-11-27T10:41:28.471Z,5.21
2022-11-27T10:42:43.534Z,5.18
2022-11-27T10:43:48.871Z,5.20
2022-11-27T10:45:00.295Z,5.22
2022-11-27T10:46:22.079Z,5.25
2022-11-27T10:47:29.678Z,5.25
2022-11-27T10:48:38.408Z,5.33
2022-11-27T10:49:42.958Z,5.28
2022-11-27T10:50:46.499Z,5.33
2022-11-27T10:51:49.451Z,5.39
2022-11-27T10:53:03.582Z,5.35
2022-11-27T10:54:12.687Z,5.33
2022-11-27T10:55:27.339Z,5.34
2022-11-27T10:57:08.854Z,5.25
2022-11-27T10:58:24.604Z,5.20
2022-11-27T10:59:34.895Z,5.20
2022-11-27T11:00:38.026Z,5.16
2022-11-27T11:01:49.958Z,5.16
2022-11-27T11:03:04.456Z,5.14
2022-11-27T11:04:31.242Z,5.19
2022-11-27T11:05:56.844Z,5.29
2022-11-27T11:06:58.730Z,5.32
2022-11-27T11:08:15.188Z,5.22
2022-11-27T11:09:25.440Z,5.24
2022-11-27T11:10:32.878Z,5.17
2022-11-27T11:11:35.687Z,5.21
2022-11-27T11:12:38.623Z,5.22
2022-11-27T11:13:41.666Z,5.25
2022-11-27T11:15:01.017Z,5.32
2022-11-27T11:16:08.826Z,5.33
2022-11-27T11:17:18.485Z,5.34
2022-11-27T11:18:28.042Z,5.36
2022-11-27T11:19:33.451Z,5.34
2022-11-27T11:20:36.459Z,5.36
2022-11-27T11:21:42.557Z,5.34
2022-11-27T11:22:49.094Z,5.23
2022-11-27T11:24:02.040Z,5.22
2022-11-27T11:25:05.600Z,5.14
2022-11-27T11:26:29.037Z,5.12
2022-11-27T11:27:32.687Z,5.09
2022-11-27T11:28:54.657Z,5.22
2022-11-27T11:30:06.381Z,5.40
2022-11-27T11:31:14.302Z,5.24
2022-11-27T11:32:20.549Z,5.15
2022-11-27T11:33:23.493Z,5.13
2022-11-27T11:34:29.185Z,5.12
2022-11-27T11:35:36.320Z,5.13
2022-11-27T11:36:39.996Z,5.14
2022-11-27T11:37:46.498Z,5.21
2022-11-27T11:38:50.558Z,5.18
2022-11-27T11:39:58.328Z,5.21
2022-11-27T11:41:08.000Z,5.23
2022-11-27T11:42:19.069Z,5.16
2022-11-27T11:43:33.525Z,5.13
2022-11-27T11:44:39.559Z,5.16
2022-11-27T11:45:50.709Z,5.15
2022-11-27T11:46:55.050Z,5.13
2022-11-27T11:48:04.259Z,5.17
2022-11-27T11:49:17.400Z,5.24
2022-11-27T11:51:08.427Z,5.26
2022-11-27T11:52:38.344Z,5.32
2022-11-27T11:53:45.772Z,5.28
2022-11-27T11:54:56.228Z,5.20
2022-11-27T11:56:39.858Z,5.25
2022-11-27T11:58:10.490Z,5.29
2022-11-27T11:59:42.129Z,5.23
2022-11-27T12:01:19.433Z,5.18
2022-11-27T12:02:19.830Z,5.11
2022-11-27T12:03:51.756Z,4.99
2022-11-27T12:05:24.606Z,5.08
2022-11-27T12:06:45.943Z,4.97
2022-11-27T12:08:15.000Z,4.93
2022-11-27T12:09:42.790Z,4.92
2022-11-27T12:10:54.040Z,4.91
2022-11-27T12:12:02.843Z,4.91
2022-11-27T12:13:25.961Z,4.92
2022-11-27T12:14:43.348Z,4.93
2022-11-27T12:16:20.062Z,4.97
2022-11-27T12:17:42.090Z,4.97
2022-11-27T12:19:08.124Z,4.96
2022-11-27T12:20:32.533Z,5.09
2022-11-27T12:21:42.599Z,5.11
2022-11-27T12:23:22.559Z,5.14
2022-11-27T12:24:43.108Z,5.08
2022-11-27T12:26:06.682Z,5.02
2022-11-27T12:27:45.979Z,5.00
2022-11-27T12:28:59.305Z,4.96
2022-11-27T12:30:19.322Z,4.98
2022-11-27T12:31:36.026Z,4.99
2022-11-27T12:33:14.621Z,5.01
2022-11-27T12:34:23.546Z,5.04
2022-11-27T12:35:42.598Z,5.17
2022-11-27T12:37:11.176Z,5.16
2022-11-27T12:38:22.631Z,5.09
2022-11-27T12:39:33.265Z,5.15
2022-11-27T12:40:56.067Z,5.11
2022-11-27T12:42:34.474Z,5.07
2022-11-27T12:43:51.077Z,5.05
2022-11-27T12:44:57.453Z,5.03
2022-11-27T12:46:10.799Z,5.07
2022-11-27T12:47:38.932Z,5.20
2022-11-27T12:49:10.835Z,5.14
2022-11-27T12:50:24.297Z,5.21
2022-11-27T12:51:38.709Z,5.14
2022-11-27T12:52:46.424Z,5.10
2022-11-27T12:53:55.809Z,5.11
2022-11-27T12:55:23.419Z,5.20
2022-11-27T12:56:42.137Z,5.30
2022-11-27T12:57:54.741Z,5.29
2022-11-27T12:59:23.348Z,5.34
2022-11-27T13:00:31.244Z,5.20
2022-11-27T13:01:41.262Z,5.17
2022-11-27T13:03:05.434Z,5.13
2022-11-27T13:04:37.940Z,5.10
2022-11-27T13:05:50.592Z,5.13
2022-11-27T13:07:18.474Z,5.27
2022-11-27T13:08:49.601Z,5.26
2022-11-27T13:10:08.592Z,5.28
2022-11-27T13:11:15.833Z,5.38
2022-11-27T13:12:31.876Z,5.29
2022-11-27T13:14:01.103Z,5.27
2022-11-27T13:16:32.417Z,5.19
2022-11-27T13:17:42.715Z,5.23
2022-11-27T13:19:12.399Z,5.20
2022-11-27T13:20:21.316Z,5.21
2022-11-27T13:21:29.998Z,5.15
2022-11-27T13:22:36.403Z,5.23
2022-11-27T13:23:39.777Z,5.13
2022-11-27T13:24:46.502Z,5.13
2022-11-27T13:25:55.238Z,5.15
2022-11-27T13:27:01.374Z,5.18
2022-11-27T13:28:05.914Z,5.13
2022-11-27T13:29:27.666Z,5.11
2022-11-27T13:30:34.516Z,5.14
2022-11-27T13:31:39.672Z,5.12
2022-11-27T13:32:50.366Z,5.12
2022-11-27T13:34:00.028Z,5.11
2022-11-27T13:35:08.118Z,5.06
2022-11-27T13:36:30.028Z,5.08
2022-11-27T13:37:37.068Z,5.12
2022-11-27T13:38:42.528Z,5.10
2022-11-27T13:39:48.034Z,5.06
2022-11-27T13:40:56.293Z,5.03
2022-11-27T13:42:24.120Z,5.10
2022-11-27T13:43:46.081Z,5.21
2022-11-27T13:44:54.302Z,5.11
2022-11-27T13:46:06.229Z,5.12
2022-11-27T13:47:16.100Z,5.13
2022-11-27T13:48:39.457Z,5.05
2022-11-27T13:49:43.803Z,5.10
2022-11-27T13:50:47.662Z,5.07
2022-11-27T13:51:50.940Z,5.06
2022-11-27T13:53:07.567Z,5.07
2022-11-27T13:54:17.539Z,5.07
2022-11-27T13:55:30.069Z,5.04
2022-11-27T13:56:33.309Z,5.10
2022-11-27T13:57:37.109Z,5.09
2022-11-27T13:58:42.450Z,5.06
2022-11-27T14:00:04.215Z,5.00
2022-11-27T14:01:17.292Z,4.98
2022-11-27T14:02:23.306Z,5.07
2022-11-27T14:03:28.985Z,5.14
2022-11-27T14:04:33.877Z,5.17
2022-11-27T14:05:39.315Z,5.17
2022-11-27T14:06:43.979Z,5.17
2022-11-27T14:07:50.199Z,5.04
2022-11-27T14:08:59.379Z,4.98
2022-11-27T14:10:13.109Z,4.97
2022-11-27T14:11:16.341Z,4.93
2022-11-27T14:12:27.231Z,4.95
2022-11-27T14:13:57.787Z,4.96
2022-11-27T14:15:03.779Z,4.95
2022-11-27T14:16:26.965Z,4.98
2022-11-27T14:17:43.977Z,5.01
2022-11-27T14:18:55.448Z,4.99
2022-11-27T14:20:04.241Z,5.06
2022-11-27T14:21:07.299Z,5.15
2022-11-27T14:22:48.490Z,5.07
2022-11-27T14:23:58.437Z,5.01
2022-11-27T14:25:23.543Z,5.01
2022-11-27T14:26:27.217Z,5.15
2022-11-27T14:27:36.194Z,5.09
2022-11-27T14:28:50.314Z,5.14
2022-11-27T14:29:53.820Z,5.05
2022-11-27T14:31:02.084Z,4.97
2022-11-27T14:32:13.847Z,4.98
2022-11-27T14:33:24.248Z,5.00
2022-11-27T14:34:27.031Z,5.03
2022-11-27T14:35:30.264Z,4.93
2022-11-27T14:36:35.761Z,5.02
2022-11-27T14:37:39.011Z,4.95
2022-11-27T14:38:47.412Z,4.91
2022-11-27T14:39:52.793Z,4.99
2022-11-27T14:41:26.581Z,5.04
2022-11-27T14:42:34.075Z,5.00
2022-11-27T14:43:39.335Z,5.04
2022-11-27T14:44:42.584Z,4.98
2022-11-27T14:45:48.864Z,4.99
2022-11-27T14:46:52.817Z,4.99
2022-11-27T14:47:56.166Z,4.92
2022-11-27T14:49:00.177Z,4.96
2022-11-27T14:50:04.617Z,4.99
2022-11-27T14:51:14.879Z,4.97
2022-11-27T14:52:19.043Z,4.98
2022-11-27T14:53:26.441Z,4.92
2022-11-27T14:54:33.268Z,4.89
2022-11-27T14:55:36.553Z,4.96
2022-11-27T14:56:44.704Z,4.91
2022-11-27T14:57:50.487Z,4.91
2022-11-27T14:58:55.439Z,4.86
2022-11-27T15:00:27.393Z,4.84
2022-11-27T15:01:35.269Z,4.82
2022-11-27T15:02:38.914Z,4.81
2022-11-27T15:03:42.110Z,4.81
2022-11-27T15:04:46.692Z,4.81
2022-11-27T15:05:59.146Z,4.83
2022-11-27T15:07:06.698Z,4.90
2022-11-27T15:08:11.246Z,4.87
2022-11-27T15:09:32.110Z,4.84
2022-11-27T15:10:38.519Z,4.82
2022-11-27T15:11:55.611Z,4.82